METAR Data
IDs: Format: Raw Decoded Include TAF

Data at: 2036 UTC 25 Oct 2021

ESGG 252020Z 18009KT 1600 BR OVC002 09/08 Q1011